PAX377 FIMP-FMEE
Flight info
| Callsign | PAX377 |
|---|---|
| Flight time | 0h 31m |
| Altitude | 22000 |
| Route | SOBAT1 SOBAT SOBAT2R |
| Aircraft | A20N/M-SDE2E3FGHIRWXY/LB1 |
Departure
| Time | 2026-04-17 10:20 |
|---|---|
| Airport | Sir Seewoosagur Ramgoolam International Airport (FIMP) |
Arrival
| Time | 2026-04-17 10:52 |
|---|---|
| Airport | Roland Garros Airport (FMEE) |
| Time | Latitude | Longitude | Altitude | Speed | Heading |
|---|---|---|---|---|---|
| 2026-04-17 10:07 | -20.42669 | 57.67470 | 198 ft | 0 kts | 309° |
| 2026-04-17 10:15 | -20.42657 | 57.67451 | 199 ft | 8 kts | 296° |
| 2026-04-17 10:15 | -20.42646 | 57.67394 | 201 ft | 4 kts | 271° |
| 2026-04-17 10:15 | -20.42647 | 57.67359 | 202 ft | 8 kts | 271° |
| 2026-04-17 10:16 | -20.42621 | 57.67264 | 206 ft | 20 kts | 296° |
| 2026-04-17 10:16 | -20.42559 | 57.67135 | 211 ft | 18 kts | 297° |
| 2026-04-17 10:16 | -20.42508 | 57.67029 | 215 ft | 14 kts | 297° |
| 2026-04-17 10:16 | -20.42469 | 57.66948 | 218 ft | 10 kts | 297° |
| 2026-04-17 10:17 | -20.42439 | 57.66897 | 220 ft | 6 kts | 329° |
| 2026-04-17 10:17 | -20.42406 | 57.66896 | 220 ft | 5 kts | 21° |
| 2026-04-17 10:17 | -20.42366 | 57.66917 | 218 ft | 8 kts | 29° |
| 2026-04-17 10:17 | -20.42342 | 57.66949 | 216 ft | 6 kts | 95° |
| 2026-04-17 10:18 | -20.42357 | 57.66986 | 214 ft | 0 kts | 126° |
| 2026-04-17 10:18 | -20.42364 | 57.66995 | 214 ft | 3 kts | 130° |
| 2026-04-17 10:18 | -20.42377 | 57.67017 | 213 ft | 0 kts | 117° |
| 2026-04-17 10:19 | -20.42379 | 57.67021 | 213 ft | 4 kts | 116° |
| 2026-04-17 10:19 | -20.42501 | 57.67279 | 203 ft | 86 kts | 117° |
| 2026-04-17 10:20 | -20.42921 | 57.68138 | 178 ft | 172 kts | 117° |
| 2026-04-17 10:20 | -20.43570 | 57.69430 | 472 ft | 221 kts | 115° |
| 2026-04-17 10:20 | -20.44236 | 57.70903 | 1627 ft | 224 kts | 113° |
| 2026-04-17 10:20 | -20.45342 | 57.72178 | 2683 ft | 252 kts | 153° |
| 2026-04-17 10:21 | -20.47127 | 57.72399 | 3628 ft | 269 kts | 193° |
| 2026-04-17 10:21 | -20.48962 | 57.72024 | 4690 ft | 265 kts | 183° |
| 2026-04-17 10:21 | -20.50726 | 57.71707 | 6110 ft | 247 kts | 195° |
| 2026-04-17 10:21 | -20.52364 | 57.71364 | 7149 ft | 243 kts | 179° |
| 2026-04-17 10:22 | -20.54034 | 57.71834 | 7269 ft | 267 kts | 146° |
| 2026-04-17 10:22 | -20.55370 | 57.73439 | 6592 ft | 323 kts | 114° |
| 2026-04-17 10:22 | -20.56286 | 57.75908 | 5654 ft | 382 kts | 109° |
| 2026-04-17 10:22 | -20.57204 | 57.78385 | 6409 ft | 335 kts | 110° |
| 2026-04-17 10:23 | -20.57828 | 57.80615 | 6800 ft | 299 kts | 97° |
| 2026-04-17 10:23 | -20.58388 | 57.82635 | 7088 ft | 278 kts | 117° |
| 2026-04-17 10:23 | -20.59691 | 57.84163 | 7410 ft | 285 kts | 143° |
| 2026-04-17 10:23 | -20.61543 | 57.84952 | 7735 ft | 293 kts | 169° |
| 2026-04-17 10:24 | -20.63593 | 57.84818 | 8061 ft | 300 kts | 195° |
| 2026-04-17 10:24 | -20.65425 | 57.83764 | 8385 ft | 304 kts | 221° |
| 2026-04-17 10:24 | -20.66691 | 57.81965 | 8709 ft | 305 kts | 248° |
| 2026-04-17 10:24 | -20.67129 | 57.79776 | 9034 ft | 303 kts | 274° |
| 2026-04-17 10:25 | -20.66666 | 57.77628 | 9357 ft | 298 kts | 299° |
| 2026-04-17 10:25 | -20.65413 | 57.75927 | 9680 ft | 293 kts | 325° |
| 2026-04-17 10:25 | -20.63661 | 57.74846 | 10016 ft | 290 kts | 337° |
| 2026-04-17 10:25 | -20.61822 | 57.73940 | 10342 ft | 291 kts | 338° |
| 2026-04-17 10:26 | -20.59974 | 57.73049 | 10667 ft | 293 kts | 338° |
| 2026-04-17 10:26 | -20.58122 | 57.72149 | 10990 ft | 294 kts | 336° |
| 2026-04-17 10:26 | -20.56424 | 57.70876 | 11312 ft | 301 kts | 317° |
| 2026-04-17 10:26 | -20.55159 | 57.69080 | 11642 ft | 307 kts | 302° |
| 2026-04-17 10:27 | -20.54216 | 57.67061 | 11967 ft | 309 kts | 296° |
| 2026-04-17 10:27 | -20.53396 | 57.64914 | 12296 ft | 311 kts | 294° |
| 2026-04-17 10:27 | -20.52603 | 57.62700 | 12639 ft | 335 kts | 293° |
| 2026-04-17 10:27 | -20.51748 | 57.60288 | 12990 ft | 364 kts | 292° |
| 2026-04-17 10:28 | -20.50814 | 57.57654 | 13342 ft | 393 kts | 292° |
| 2026-04-17 10:28 | -20.49838 | 57.54900 | 13677 ft | 403 kts | 292° |
| 2026-04-17 10:28 | -20.48820 | 57.52034 | 14017 ft | 425 kts | 292° |
| 2026-04-17 10:28 | -20.47769 | 57.49064 | 14347 ft | 429 kts | 291° |
| 2026-04-17 10:29 | -20.47119 | 57.45992 | 14659 ft | 434 kts | 276° |
| 2026-04-17 10:29 | -20.47205 | 57.42738 | 14996 ft | 438 kts | 264° |
| 2026-04-17 10:29 | -20.47731 | 57.39557 | 15325 ft | 441 kts | 259° |
| 2026-04-17 10:29 | -20.48422 | 57.36363 | 15680 ft | 442 kts | 257° |
| 2026-04-17 10:30 | -20.49143 | 57.33165 | 16649 ft | 444 kts | 257° |
| 2026-04-17 10:30 | -20.49852 | 57.29962 | 17688 ft | 451 kts | 258° |
| 2026-04-17 10:30 | -20.50561 | 57.26700 | 18811 ft | 454 kts | 258° |
| 2026-04-17 10:30 | -20.51266 | 57.23428 | 19957 ft | 456 kts | 258° |
| 2026-04-17 10:31 | -20.51970 | 57.20152 | 21105 ft | 455 kts | 258° |
| 2026-04-17 10:31 | -20.52672 | 57.16886 | 22278 ft | 452 kts | 258° |
| 2026-04-17 10:31 | -20.53380 | 57.13588 | 22823 ft | 466 kts | 258° |
| 2026-04-17 10:31 | -20.54119 | 57.10135 | 22896 ft | 485 kts | 258° |
| 2026-04-17 10:32 | -20.54874 | 57.06617 | 22898 ft | 488 kts | 258° |
| 2026-04-17 10:32 | -20.55625 | 57.03112 | 22894 ft | 488 kts | 258° |
| 2026-04-17 10:32 | -20.56378 | 56.99594 | 22894 ft | 488 kts | 258° |
| 2026-04-17 10:32 | -20.57129 | 56.96077 | 22894 ft | 488 kts | 258° |
| 2026-04-17 10:33 | -20.57877 | 56.92572 | 22895 ft | 488 kts | 258° |
| 2026-04-17 10:33 | -20.58625 | 56.89063 | 22894 ft | 488 kts | 258° |
| 2026-04-17 10:33 | -20.59382 | 56.85512 | 22895 ft | 488 kts | 258° |
| 2026-04-17 10:33 | -20.60128 | 56.82002 | 22894 ft | 488 kts | 258° |
| 2026-04-17 10:34 | -20.60874 | 56.78494 | 22895 ft | 488 kts | 258° |
| 2026-04-17 10:34 | -20.61620 | 56.74978 | 22894 ft | 488 kts | 258° |
| 2026-04-17 10:34 | -20.62366 | 56.71461 | 22895 ft | 488 kts | 258° |
| 2026-04-17 10:34 | -20.63113 | 56.67936 | 22894 ft | 488 kts | 258° |
| 2026-04-17 10:35 | -20.63857 | 56.64418 | 22895 ft | 488 kts | 258° |
| 2026-04-17 10:35 | -20.64605 | 56.60881 | 22894 ft | 488 kts | 258° |
| 2026-04-17 10:35 | -20.65346 | 56.57373 | 22895 ft | 488 kts | 258° |
| 2026-04-17 10:35 | -20.66090 | 56.53847 | 22978 ft | 489 kts | 258° |
| 2026-04-17 10:36 | -20.66834 | 56.50317 | 23025 ft | 490 kts | 258° |
| 2026-04-17 10:36 | -20.67576 | 56.46789 | 23032 ft | 489 kts | 258° |
| 2026-04-17 10:36 | -20.68319 | 56.43259 | 23037 ft | 489 kts | 258° |
| 2026-04-17 10:36 | -20.69061 | 56.39723 | 23041 ft | 489 kts | 258° |
| 2026-04-17 10:37 | -20.69805 | 56.36177 | 23046 ft | 489 kts | 258° |
| 2026-04-17 10:37 | -20.70549 | 56.32630 | 23050 ft | 490 kts | 258° |
| 2026-04-17 10:37 | -20.71283 | 56.29097 | 23053 ft | 489 kts | 259° |
| 2026-04-17 10:37 | -20.71735 | 56.25520 | 23057 ft | 488 kts | 267° |
| 2026-04-17 10:38 | -20.71807 | 56.21919 | 23065 ft | 488 kts | 272° |
| 2026-04-17 10:38 | -20.71709 | 56.18337 | 22972 ft | 483 kts | 273° |
| 2026-04-17 10:38 | -20.71584 | 56.14792 | 22669 ft | 475 kts | 273° |
| 2026-04-17 10:38 | -20.71475 | 56.11271 | 22051 ft | 474 kts | 273° |
| 2026-04-17 10:39 | -20.71384 | 56.07762 | 21404 ft | 473 kts | 272° |
| 2026-04-17 10:39 | -20.71300 | 56.04271 | 20806 ft | 472 kts | 272° |
| 2026-04-17 10:39 | -20.71217 | 56.00785 | 20208 ft | 470 kts | 272° |
| 2026-04-17 10:39 | -20.71132 | 55.97333 | 19613 ft | 468 kts | 273° |
| 2026-04-17 10:40 | -20.71046 | 55.93876 | 19014 ft | 466 kts | 273° |
| 2026-04-17 10:40 | -20.70960 | 55.90447 | 18418 ft | 464 kts | 273° |
| 2026-04-17 10:40 | -20.70872 | 55.86990 | 17814 ft | 461 kts | 273° |
| 2026-04-17 10:40 | -20.70786 | 55.83609 | 17218 ft | 458 kts | 273° |
| 2026-04-17 10:41 | -20.70700 | 55.80249 | 16609 ft | 448 kts | 273° |
| 2026-04-17 10:41 | -20.70616 | 55.76970 | 16009 ft | 439 kts | 273° |
| 2026-04-17 10:41 | -20.70532 | 55.73756 | 15409 ft | 430 kts | 273° |
| 2026-04-17 10:41 | -20.70449 | 55.70616 | 14811 ft | 422 kts | 273° |
| 2026-04-17 10:42 | -20.70367 | 55.67529 | 14211 ft | 414 kts | 273° |
| 2026-04-17 10:42 | -20.70279 | 55.64478 | 13608 ft | 407 kts | 273° |
| 2026-04-17 10:42 | -20.70177 | 55.61489 | 13007 ft | 400 kts | 274° |
| 2026-04-17 10:42 | -20.70069 | 55.58562 | 12409 ft | 394 kts | 274° |
| 2026-04-17 10:43 | -20.69961 | 55.55678 | 11810 ft | 388 kts | 274° |
| 2026-04-17 10:43 | -20.69853 | 55.52823 | 11209 ft | 382 kts | 274° |
| 2026-04-17 10:43 | -20.69747 | 55.50010 | 10609 ft | 377 kts | 274° |
| 2026-04-17 10:43 | -20.69642 | 55.47249 | 10012 ft | 371 kts | 274° |
| 2026-04-17 10:44 | -20.69539 | 55.44517 | 9419 ft | 364 kts | 274° |
| 2026-04-17 10:44 | -20.69438 | 55.41864 | 8934 ft | 354 kts | 274° |
| 2026-04-17 10:44 | -20.69337 | 55.39249 | 8103 ft | 356 kts | 274° |
| 2026-04-17 10:44 | -20.69238 | 55.36673 | 7740 ft | 342 kts | 274° |
| 2026-04-17 10:45 | -20.69159 | 55.34143 | 6981 ft | 343 kts | 270° |
| 2026-04-17 10:45 | -20.69696 | 55.31689 | 6409 ft | 338 kts | 245° |
| 2026-04-17 10:45 | -20.71044 | 55.29748 | 6218 ft | 319 kts | 221° |
| 2026-04-17 10:45 | -20.72928 | 55.28504 | 5472 ft | 319 kts | 198° |
| 2026-04-17 10:46 | -20.75095 | 55.28179 | 4792 ft | 313 kts | 172° |
| 2026-04-17 10:46 | -20.77080 | 55.28847 | 4614 ft | 287 kts | 145° |
| 2026-04-17 10:46 | -20.78540 | 55.30138 | 4586 ft | 260 kts | 129° |
| 2026-04-17 10:46 | -20.79531 | 55.31609 | 4607 ft | 232 kts | 116° |
| 2026-04-17 10:47 | -20.80232 | 55.33050 | 4584 ft | 207 kts | 112° |
| 2026-04-17 10:47 | -20.80827 | 55.34335 | 4606 ft | 180 kts | 112° |
| 2026-04-17 10:47 | -20.81369 | 55.35492 | 4586 ft | 165 kts | 111° |
| 2026-04-17 10:47 | -20.81860 | 55.36535 | 4461 ft | 159 kts | 111° |
| 2026-04-17 10:48 | -20.82361 | 55.37603 | 3977 ft | 164 kts | 111° |
| 2026-04-17 10:48 | -20.82889 | 55.38722 | 3431 ft | 173 kts | 112° |
| 2026-04-17 10:48 | -20.83437 | 55.39881 | 2878 ft | 180 kts | 112° |
| 2026-04-17 10:48 | -20.84004 | 55.41075 | 2536 ft | 174 kts | 112° |
| 2026-04-17 10:49 | -20.84507 | 55.42164 | 2403 ft | 155 kts | 109° |
| 2026-04-17 10:49 | -20.84737 | 55.42730 | 1996 ft | 168 kts | 114° |
| 2026-04-17 10:49 | -20.85356 | 55.43808 | 1615 ft | 164 kts | 115° |
| 2026-04-17 10:49 | -20.85677 | 55.44463 | 1476 ft | 154 kts | 112° |
| 2026-04-17 10:50 | -20.85780 | 55.44689 | 1402 ft | 153 kts | 111° |
| 2026-04-17 10:50 | -20.86232 | 55.45728 | 1067 ft | 157 kts | 110° |
| 2026-04-17 10:50 | -20.86682 | 55.46747 | 745 ft | 150 kts | 114° |
| 2026-04-17 10:50 | -20.87152 | 55.47689 | 453 ft | 139 kts | 111° |
| 2026-04-17 10:51 | -20.87569 | 55.48597 | 231 ft | 133 kts | 112° |
| 2026-04-17 10:51 | -20.88033 | 55.49445 | 271 ft | 132 kts | 118° |
| 2026-04-17 10:51 | -20.88438 | 55.50245 | 174 ft | 114 kts | 107° |
| 2026-04-17 10:51 | -20.88696 | 55.50965 | 65 ft | 83 kts | 106° |
| 2026-04-17 10:52 | -20.88845 | 55.51329 | 69 ft | 26 kts | 118° |
| 2026-04-17 10:52 | -20.88915 | 55.51477 | 70 ft | 14 kts | 115° |
| 2026-04-17 10:52 | -20.88952 | 55.51561 | 71 ft | 10 kts | 116° |
| 2026-04-17 10:52 | -20.88985 | 55.51599 | 72 ft | 5 kts | 165° |
| 2026-04-17 10:53 | -20.88998 | 55.51600 | 73 ft | 0 kts | 204° |
| 2026-04-17 10:53 | -20.89007 | 55.51570 | 75 ft | 8 kts | 281° |
| 2026-04-17 10:53 | -20.89013 | 55.51530 | 76 ft | 3 kts | 240° |
| 2026-04-17 10:53 | -20.89019 | 55.51521 | 77 ft | 0 kts | 238° |
| 2026-04-17 10:54 | -20.89020 | 55.51518 | 77 ft | 0 kts | 238° |
| 2026-04-17 10:54 | -20.89033 | 55.51495 | 78 ft | 10 kts | 240° |
| 2026-04-17 10:54 | -20.89061 | 55.51416 | 82 ft | 12 kts | 269° |
| 2026-04-17 10:54 | -20.89022 | 55.51318 | 81 ft | 17 kts | 294° |
| 2026-04-17 10:55 | -20.89021 | 55.51255 | 82 ft | 1 kts | 205° |
| 2026-04-17 10:55 | -20.89028 | 55.51252 | 83 ft | 1 kts | 174° |
| 2026-04-17 10:55 | -20.89036 | 55.51254 | 83 ft | 2 kts | 181° |
| 2026-04-17 10:55 | -20.89041 | 55.51253 | 84 ft | 0 kts | 198° |
| 2026-04-17 10:57 | -20.89054 | 55.51247 | 85 ft | 6 kts | 209° |
| 2026-04-17 10:57 | -20.89055 | 55.51246 | 85 ft | 0 kts | 209° |